Time;durP1;ratioP1;P1;durP2;ratioP2;P2;SDS_P1;SDS_P2;PMS_P1;PMS_P2;Temp;Humidity;BMP_temperature;BMP_pressure;BME280_temperature;BME280_humidity;BME280_pressure;Samples;Min_cycle;Max_cycle;Signal;HPM_P1;HPM_P2
2021/08/23 00:00:15;;;;;;;18.52;12.68;;;;;;;16.61;89.72;102159.50;5047710;28;20437;-62
2021/08/23 00:02:40;;;;;;;19.42;12.40;;;;;;;16.65;89.77;102162.84;5049230;28;20032;-62
2021/08/23 00:05:07;;;;;;;17.95;12.25;;;;;;;16.63;89.05;102167.44;5048574;28;20021;-62
2021/08/23 00:07:32;;;;;;;18.02;12.27;;;;;;;16.63;89.52;102167.44;5049754;28;20033;-63
2021/08/23 00:09:57;;;;;;;18.38;12.68;;;;;;;16.62;89.99;102165.69;5047839;28;20037;-62
2021/08/23 00:12:24;;;;;;;17.55;12.30;;;;;;;16.61;89.61;102167.50;5049714;28;20065;-62
2021/08/23 00:14:51;;;;;;;20.20;13.25;;;;;;;16.59;89.17;102172.06;5047827;28;20029;-62
2021/08/23 00:17:16;;;;;;;22.35;13.65;;;;;;;16.59;89.57;102169.38;5049484;28;20025;-62
2021/08/23 00:19:41;;;;;;;22.85;13.35;;;;;;;16.58;89.60;102164.97;5048281;28;20028;-63
2021/08/23 00:22:29;;;;;;;19.33;13.27;;;;;;;16.58;89.97;102175.66;5049254;28;20036;-63
2021/08/23 00:24:55;;;;;;;18.98;13.10;;;;;;;16.61;88.98;102169.28;5048229;28;20047;-62
2021/08/23 00:27:20;;;;;;;21.92;14.05;;;;;;;16.55;89.72;102174.00;5049099;28;20115;-62
2021/08/23 00:29:46;;;;;;;21.85;13.65;;;;;;;16.58;89.39;102172.13;5047905;28;20128;-62
2021/08/23 00:32:13;;;;;;;18.95;13.65;;;;;;;16.59;89.01;102176.53;5048649;28;20029;-62
2021/08/23 00:34:38;;;;;;;18.50;13.02;;;;;;;16.55;88.93;102178.50;5048477;28;20048;-62
2021/08/23 00:37:04;;;;;;;20.38;13.85;;;;;;;16.55;89.48;102182.03;5048102;28;20025;-63
2021/08/23 00:39:30;;;;;;;21.45;13.93;;;;;;;16.50;89.40;102184.06;5047673;28;20043;-62
2021/08/23 00:41:55;;;;;;;20.90;14.48;;;;;;;16.49;89.36;102187.66;5049102;28;20033;-61
2021/08/23 00:44:21;;;;;;;22.25;14.13;;;;;;;16.49;89.45;102193.00;5049170;28;20070;-63
2021/08/23 00:46:46;;;;;;;21.48;13.80;;;;;;;16.50;89.13;102194.75;5047118;28;20037;-63
2021/08/23 00:49:13;;;;;;;21.25;13.40;;;;;;;16.50;88.98;102194.75;5047546;28;20454;-62
2021/08/23 00:51:39;;;;;;;18.80;12.98;;;;;;;16.52;89.40;102195.56;5048477;28;20040;-62
2021/08/23 00:54:04;;;;;;;21.15;14.25;;;;;;;16.48;89.09;102204.69;5048999;28;20085;-63
2021/08/23 00:56:29;;;;;;;18.85;12.70;;;;;;;16.44;88.80;102197.72;5047233;28;20025;-62
2021/08/23 00:58:55;;;;;;;20.95;13.40;;;;;;;16.40;88.96;102198.81;5049147;28;20115;-62
2021/08/23 01:01:33;;;;;;;20.92;12.68;;;;;;;16.38;88.78;102206.03;5046966;28;20136;-63
2021/08/23 01:04:20;;;;;;;21.58;13.38;;;;;;;16.35;88.79;102208.84;5048761;28;20033;-63
2021/08/23 01:06:46;;;;;;;18.77;12.75;;;;;;;16.35;89.28;102206.19;5047218;28;20108;-62
2021/08/23 01:09:15;;;;;;;18.50;13.27;;;;;;;16.34;88.97;102217.81;5048741;28;20109;-62
2021/08/23 01:11:52;;;;;;;18.80;12.73;;;;;;;16.35;89.11;102224.91;5046907;28;20139;-63
2021/08/23 01:14:19;;;;;;;19.20;12.88;;;;;;;16.35;88.93;102225.75;5048401;28;20342;-62
2021/08/23 01:16:45;;;;;;;17.95;13.05;;;;;;;16.34;89.36;102223.16;5047033;28;20468;-62
2021/08/23 01:19:12;;;;;;;21.08;13.98;;;;;;;16.29;89.45;102242.09;5047957;28;20091;-63
2021/08/23 01:21:37;;;;;;;19.63;13.43;;;;;;;16.25;89.55;102243.16;5046713;28;20033;-62
2021/08/23 01:24:07;;;;;;;20.10;13.55;;;;;;;16.21;89.32;102234.44;5048314;28;20440;-62
2021/08/23 01:26:37;;;;;;;19.45;13.20;;;;;;;16.23;89.56;102234.38;5047094;28;20443;-63
2021/08/23 01:29:17;;;;;;;19.38;13.02;;;;;;;16.20;89.77;102246.06;5044732;28;20578;-62
2021/08/23 01:32:10;;;;;;;19.42;12.82;;;;;;;16.18;88.99;102244.41;5048361;28;20029;-62
2021/08/23 01:34:36;;;;;;;18.42;12.95;;;;;;;16.15;89.53;102248.09;5047609;28;20164;-63
2021/08/23 01:37:03;;;;;;;19.30;13.30;;;;;;;16.13;90.02;102251.78;5046376;28;20100;-62
2021/08/23 01:39:30;;;;;;;21.48;12.90;;;;;;;16.17;89.93;102250.69;5046490;28;20033;-62
2021/08/23 01:41:55;;;;;;;21.25;13.95;;;;;;;16.12;89.13;102256.22;5048201;28;20025;-62
2021/08/23 01:44:20;;;;;;;19.55;14.13;;;;;;;16.10;89.51;102259.91;5046414;28;20487;-62
2021/08/23 01:46:45;;;;;;;19.30;13.20;;;;;;;16.07;89.69;102268.94;5048436;28;20044;-63
2021/08/23 01:49:11;;;;;;;19.20;12.57;;;;;;;16.09;89.03;102263.50;5046047;28;20117;-62
2021/08/23 01:51:36;;;;;;;20.42;13.65;;;;;;;16.10;89.52;102262.56;5047746;28;20055;-62
2021/08/23 01:54:04;;;;;;;20.02;13.75;;;;;;;16.14;89.12;102257.03;5046336;28;20029;-62
2021/08/23 01:56:29;;;;;;;19.08;12.98;;;;;;;16.15;87.87;102265.91;5048023;28;20527;-69
2021/08/23 01:58:55;;;;;;;17.05;12.23;;;;;;;16.14;88.88;102264.16;5045942;28;20169;-62
2021/08/23 02:01:20;;;;;;;19.10;12.82;;;;;;;16.15;88.16;102263.25;5047932;28;20127;-62
2021/08/23 02:03:47;;;;;;;21.25;12.95;;;;;;;16.16;87.81;102275.66;5047997;28;20025;-62
2021/08/23 02:06:12;;;;;;;18.55;12.27;;;;;;;16.14;88.12;102270.41;5044217;28;20071;-62
2021/08/23 02:08:37;;;;;;;18.75;12.00;;;;;;;16.14;88.63;102264.16;5038502;28;20108;-62
2021/08/23 02:11:03;;;;;;;17.33;12.10;;;;;;;16.16;88.78;102271.22;5047820;28;20033;-62
2021/08/23 02:13:28;;;;;;;17.92;11.27;;;;;;;16.16;87.95;102267.66;5047977;28;20029;-61
2021/08/23 02:15:53;;;;;;;16.80;11.43;;;;;;;16.19;87.93;102276.41;5046016;28;20090;-62
2021/08/23 02:18:18;;;;;;;17.05;10.98;;;;;;;16.20;87.47;102275.47;5045707;28;20033;-62
2021/08/23 02:20:44;;;;;;;17.05;10.98;;;;;;;16.19;87.54;102280.88;5047603;28;20068;-62
2021/08/23 02:23:09;;;;;;;14.38;10.40;;;;;;;16.21;87.52;102279.00;5047779;28;20060;-66
2021/08/23 02:25:35;;;;;;;14.65;9.60;;;;;;;16.23;87.07;102290.50;5046146;28;20391;-63
2021/08/23 02:28:00;;;;;;;18.00;9.98;;;;;;;16.20;87.20;102294.19;5044710;28;20492;-62
2021/08/23 02:30:25;;;;;;;16.60;9.48;;;;;;;16.22;87.45;102292.28;5047250;28;20021;-62
2021/08/23 02:32:51;;;;;;;15.00;9.77;;;;;;;16.21;87.20;102293.25;5028462;28;20033;-62
2021/08/23 02:35:17;;;;;;;15.75;9.20;;;;;;;16.25;87.02;102299.28;5027407;28;20080;-61
2021/08/23 02:37:43;;;;;;;11.60;8.70;;;;;;;16.23;87.19;102303.88;5028541;28;20175;-62
2021/08/23 02:40:09;;;;;;;15.55;8.15;;;;;;;16.26;86.63;102309.06;5028514;28;20159;-62
2021/08/23 02:42:34;;;;;;;14.70;8.52;;;;;;;16.26;86.59;102309.06;5027864;28;20033;-62
2021/08/23 02:44:59;;;;;;;11.32;8.10;;;;;;;16.24;86.30;102310.06;5028018;28;20024;-62
2021/08/23 02:47:25;;;;;;;12.68;8.13;;;;;;;16.23;86.11;102309.22;5032268;28;20332;-62
2021/08/23 02:49:50;;;;;;;14.68;8.50;;;;;;;16.22;86.30;102312.81;5031990;28;20033;-63
2021/08/23 02:52:15;;;;;;;10.82;7.18;;;;;;;16.26;85.95;102308.19;5031646;28;20021;-63
2021/08/23 02:54:41;;;;;;;10.93;7.18;;;;;;;16.22;85.67;102313.66;5031140;28;20120;-63
2021/08/23 02:57:06;;;;;;;13.95;7.10;;;;;;;16.28;85.29;102312.53;5031135;28;20017;-62
2021/08/23 02:59:31;;;;;;;10.48;6.65;;;;;;;16.27;85.37;102326.84;5033225;28;20430;-62
2021/08/23 03:01:57;;;;;;;12.52;7.10;;;;;;;16.28;85.45;102322.34;5032178;28;20112;-62
2021/08/23 03:04:22;;;;;;;13.25;6.45;;;;;;;16.29;85.21;102333.00;5031038;28;20354;-64
2021/08/23 03:06:47;;;;;;;10.77;6.07;;;;;;;16.30;84.92;102334.69;5031650;28;20033;-67
2021/08/23 03:09:12;;;;;;;11.02;5.78;;;;;;;16.34;85.19;102343.44;5033205;28;20454;-62
2021/08/23 03:11:38;;;;;;;15.52;6.35;;;;;;;16.30;84.77;102342.72;5031245;28;20112;-62
2021/08/23 03:14:03;;;;;;;13.13;6.07;;;;;;;16.29;85.26;102351.69;5030808;28;20109;-62
2021/08/23 03:16:29;;;;;;;13.00;6.28;;;;;;;16.29;84.92;102351.69;5030787;28;20025;-62
2021/08/23 03:18:54;;;;;;;15.38;6.03;;;;;;;16.30;84.94;102347.22;5031540;28;20037;-62
2021/08/23 03:21:19;;;;;;;11.60;5.78;;;;;;;16.33;84.04;102355.06;5031863;28;20484;-62
2021/08/23 03:23:45;;;;;;;12.23;5.20;;;;;;;16.31;84.90;102354.31;5030518;28;20017;-63
2021/08/23 03:26:10;;;;;;;9.38;5.35;;;;;;;16.30;84.56;102361.44;5030582;28;20025;-62
2021/08/23 03:28:36;;;;;;;10.07;5.32;;;;;;;16.31;84.97;102362.31;5030452;28;20119;-61
2021/08/23 03:31:02;;;;;;;8.88;4.93;;;;;;;16.31;84.85;102360.50;5032742;28;20030;-62
2021/08/23 03:33:27;;;;;;;9.50;5.45;;;;;;;16.33;84.41;102366.66;5030383;28;20037;-62
2021/08/23 03:35:53;;;;;;;10.70;5.10;;;;;;;16.33;84.24;102364.00;5030146;28;20049;-62
2021/08/23 03:38:18;;;;;;;8.35;4.82;;;;;;;16.35;84.51;102364.75;5030408;28;20029;-62
2021/08/23 03:40:44;;;;;;;11.32;4.50;;;;;;;16.35;84.53;102369.25;5032589;28;20029;-62
2021/08/23 03:43:09;;;;;;;10.00;5.07;;;;;;;16.38;84.68;102366.44;5010443;28;20029;-61
2021/08/23 03:45:35;;;;;;;9.25;4.70;;;;;;;16.37;84.79;102370.06;5010745;28;20098;-62
2021/08/23 03:48:00;;;;;;;10.27;5.07;;;;;;;16.38;84.79;102375.34;5010658;28;20026;-60
2021/08/23 03:50:25;;;;;;;13.63;4.70;;;;;;;16.37;84.39;102373.59;5013752;28;20343;-62
2021/08/23 03:52:51;;;;;;;9.73;5.38;;;;;;;16.34;84.85;102376.41;5031138;28;20056;-63
2021/08/23 03:55:16;;;;;;;10.32;4.65;;;;;;;16.33;84.75;102374.69;5029069;28;20464;-62
2021/08/23 03:57:42;;;;;;;7.85;4.28;;;;;;;16.34;84.63;102378.22;5028889;28;20021;-63
2021/08/23 04:00:09;;;;;;;12.52;4.53;;;;;;;16.31;84.60;102381.03;5030000;28;20409;-62
2021/08/23 04:02:34;;;;;;;8.55;4.22;;;;;;;16.35;84.18;102374.59;5031834;28;20025;-68
2021/08/23 04:05:00;;;;;;;11.63;4.55;;;;;;;16.35;83.83;102378.13;5044404;28;20032;-62
2021/08/23 04:07:26;;;;;;;11.90;4.20;;;;;;;16.36;83.47;102385.22;5049568;28;20043;-62
2021/08/23 04:09:51;;;;;;;12.00;4.65;;;;;;;16.36;83.49;102387.03;5049848;28;20431;-63
2021/08/23 04:12:17;;;;;;;10.48;4.05;;;;;;;16.37;84.06;102389.63;5046451;28;20109;-62
2021/08/23 04:14:42;;;;;;;9.05;4.25;;;;;;;16.37;83.51;102399.47;5049267;28;20108;-62
2021/08/23 04:17:07;;;;;;;11.27;4.00;;;;;;;16.37;83.56;102394.97;5050134;28;20107;-63
2021/08/23 04:19:33;;;;;;;9.25;3.75;;;;;;;16.35;84.33;102399.53;5049408;28;20194;-63
2021/08/23 04:21:58;;;;;;;10.13;3.63;;;;;;;16.33;83.93;102406.75;5048278;28;20035;-63
2021/08/23 04:24:24;;;;;;;7.07;4.20;;;;;;;16.35;83.02;102409.34;5048149;28;20025;-64
2021/08/23 04:26:49;;;;;;;12.07;3.92;;;;;;;16.34;83.68;102407.63;5049533;28;20025;-62
2021/08/23 04:29:15;;;;;;;11.70;4.28;;;;;;;16.34;83.43;102418.31;5049614;28;20051;-62
2021/08/23 04:31:42;;;;;;;10.32;3.55;;;;;;;16.33;83.57;102405.88;5049360;28;20186;-62
2021/08/23 04:34:07;;;;;;;9.30;3.80;;;;;;;16.32;82.64;102412.19;5033658;28;20021;-62
2021/08/23 04:36:32;;;;;;;8.93;3.78;;;;;;;16.33;83.01;102413.88;5029656;28;20116;-62
2021/08/23 04:38:58;;;;;;;9.32;4.32;;;;;;;16.33;82.74;102428.16;5029198;28;20060;-62
2021/08/23 04:41:23;;;;;;;10.48;4.18;;;;;;;16.33;82.95;102437.94;5029003;28;20104;-63
2021/08/23 04:43:48;;;;;;;9.95;4.18;;;;;;;16.33;82.73;102443.28;5027956;28;20059;-63
2021/08/23 04:46:14;;;;;;;10.40;4.15;;;;;;;16.34;83.35;102442.38;5029465;28;20353;-63
2021/08/23 04:48:39;;;;;;;7.60;4.05;;;;;;;16.34;83.06;102448.59;5028824;28;20053;-62
2021/08/23 04:51:06;;;;;;;8.63;4.10;;;;;;;16.37;82.20;102439.56;5022489;28;20024;-64
2021/08/23 04:53:32;;;;;;;10.93;4.10;;;;;;;16.38;82.26;102449.31;5029699;28;20052;-63
2021/08/23 04:55:57;;;;;;;8.80;4.00;;;;;;;16.37;82.09;102450.28;5030234;28;20115;-63
2021/08/23 04:58:23;;;;;;;8.80;3.80;;;;;;;16.34;82.27;102456.63;5028865;28;20067;-61
2021/08/23 05:00:48;;;;;;;11.55;4.20;;;;;;;16.36;82.42;102467.25;5028872;28;20037;-63
2021/08/23 05:03:14;;;;;;;10.65;4.13;;;;;;;16.35;82.35;102460.16;5029844;28;20033;-63
2021/08/23 05:05:42;;;;;;;11.98;4.05;;;;;;;16.35;82.43;102468.16;5030011;28;20093;-63
2021/08/23 05:08:08;;;;;;;12.02;4.18;;;;;;;16.36;82.79;102467.25;5028504;28;20040;-63
2021/08/23 05:10:34;;;;;;;10.60;3.78;;;;;;;16.36;82.86;102472.59;5028589;28;20021;-62
2021/08/23 05:12:59;;;;;;;9.40;3.72;;;;;;;16.36;82.94;102472.59;5028674;28;20025;-62
2021/08/23 05:15:25;;;;;;;13.30;4.35;;;;;;;16.37;82.78;102480.53;5028919;28;20105;-62
2021/08/23 05:17:51;;;;;;;8.48;3.85;;;;;;;16.36;83.04;102481.47;5028868;28;20045;-62
2021/08/23 05:20:17;;;;;;;8.75;4.18;;;;;;;16.37;82.93;102479.69;5028438;28;20442;-62
2021/08/23 05:22:42;;;;;;;8.82;3.75;;;;;;;16.36;82.78;102489.50;5028242;28;20085;-63
2021/08/23 05:25:08;;;;;;;9.13;3.65;;;;;;;16.37;82.80;102485.03;5029437;28;20034;-62
2021/08/23 05:27:34;;;;;;;7.13;3.42;;;;;;;16.39;82.81;102491.16;5029425;28;20548;-62
2021/08/23 05:30:06;;;;;;;7.10;3.30;;;;;;;16.40;82.45;102497.41;5028366;28;20436;-62
2021/08/23 05:32:32;;;;;;;8.77;3.55;;;;;;;16.41;82.59;102494.66;5028085;28;20108;-62
2021/08/23 05:34:57;;;;;;;11.88;3.65;;;;;;;16.45;82.71;102495.38;5029522;28;20108;-63
2021/08/23 05:37:23;;;;;;;9.13;3.67;;;;;;;16.44;82.15;102490.97;5029110;28;20105;-63
2021/08/23 05:39:48;;;;;;;8.27;3.75;;;;;;;16.48;82.39;102508.63;5027895;28;20025;-62
2021/08/23 05:42:14;;;;;;;9.82;3.70;;;;;;;16.49;82.63;102499.66;5028414;28;20491;-62
2021/08/23 05:44:42;;;;;;;10.00;3.85;;;;;;;16.50;82.67;102515.63;5028500;28;20034;-62
2021/08/23 05:47:08;;;;;;;12.10;4.03;;;;;;;16.50;82.84;102506.75;5028263;28;20078;-71
2021/08/23 05:49:33;;;;;;;7.07;3.40;;;;;;;16.53;82.54;102515.53;5020611;28;20029;-59
2021/08/23 05:52:00;;;;;;;12.88;3.88;;;;;;;16.57;82.19;102524.25;5019197;28;20041;-60
2021/08/23 05:54:25;;;;;;;6.78;3.60;;;;;;;16.60;82.53;102523.25;5021726;28;20033;-61
2021/08/23 05:56:52;;;;;;;10.70;3.80;;;;;;;16.61;82.73;102523.22;5025985;28;20022;-60
2021/08/23 05:59:18;;;;;;;8.13;3.53;;;;;;;16.68;82.99;102529.16;5029041;28;20184;-62
2021/08/23 06:01:43;;;;;;;9.35;3.80;;;;;;;16.71;82.03;102527.22;5027965;28;20186;-61
2021/08/23 06:04:08;;;;;;;12.02;3.83;;;;;;;16.71;82.59;102529.91;5027948;28;20030;-62
2021/08/23 06:06:34;;;;;;;8.63;3.40;;;;;;;16.73;82.73;102535.16;5028613;28;20483;-62
2021/08/23 06:08:59;;;;;;;8.05;3.60;;;;;;;16.75;82.50;102521.72;5028859;28;20500;-61
2021/08/23 06:11:24;;;;;;;9.73;4.13;;;;;;;16.76;82.87;102535.03;5028115;28;20025;-61
2021/08/23 06:13:50;;;;;;;8.68;3.65;;;;;;;16.75;83.61;102533.28;5027865;28;20097;-63
2021/08/23 06:16:15;;;;;;;8.60;3.88;;;;;;;16.80;83.04;102530.41;5029128;28;20053;-61
2021/08/23 06:18:40;;;;;;;7.10;3.78;;;;;;;16.79;83.66;102528.66;5027524;28;20404;-63
2021/08/23 06:21:09;;;;;;;11.40;4.10;;;;;;;16.83;83.82;102532.97;5031013;28;20116;-61
2021/08/23 06:23:34;;;;;;;9.95;4.05;;;;;;;16.87;83.87;102542.59;5031886;28;20419;-62
2021/08/23 06:25:59;;;;;;;9.93;4.03;;;;;;;16.87;83.85;102526.53;5032728;28;20103;-62
2021/08/23 06:28:25;;;;;;;8.75;3.90;;;;;;;16.89;84.08;102540.69;5031795;28;20105;-62
2021/08/23 06:30:50;;;;;;;9.93;4.45;;;;;;;16.92;83.64;102532.59;5032722;28;20021;-62
2021/08/23 06:33:15;;;;;;;8.75;3.90;;;;;;;16.99;83.37;102531.34;5027355;28;20029;-61
2021/08/23 06:35:41;;;;;;;8.43;3.90;;;;;;;17.05;83.64;102538.25;5019325;28;20033;-62
2021/08/23 06:38:06;;;;;;;8.52;4.40;;;;;;;17.07;84.13;102543.53;5037418;28;20132;-67
2021/08/23 06:40:32;;;;;;;9.32;3.92;;;;;;;17.15;83.40;102544.06;5037789;28;20029;-63
2021/08/23 06:42:57;;;;;;;10.95;4.15;;;;;;;17.19;83.62;102542.97;5050528;28;20337;-61
2021/08/23 06:45:22;;;;;;;8.68;4.10;;;;;;;17.21;83.61;102541.09;5035652;28;20132;-62
2021/08/23 06:47:47;;;;;;;13.73;4.57;;;;;;;17.27;83.23;102543.47;5042379;28;20053;-62
2021/08/23 06:50:13;;;;;;;10.45;4.03;;;;;;;17.34;82.93;102541.38;5030850;28;20061;-62
2021/08/23 06:52:40;;;;;;;11.60;4.10;;;;;;;17.33;83.36;102545.03;5043140;28;20047;-64
2021/08/23 06:55:06;;;;;;;9.23;4.05;;;;;;;17.37;83.35;102543.94;5048013;28;20025;-64
2021/08/23 06:57:31;;;;;;;7.93;3.90;;;;;;;17.45;82.72;102551.63;5030866;28;20184;-62
2021/08/23 06:59:56;;;;;;;11.93;4.40;;;;;;;17.45;82.65;102555.16;5028056;28;20021;-61
2021/08/23 07:02:22;;;;;;;9.40;4.35;;;;;;;17.46;82.70;102562.25;5032040;28;20025;-61
2021/08/23 07:04:49;;;;;;;11.60;3.92;;;;;;;17.59;82.44;102564.34;5030622;28;20163;-64
2021/08/23 07:07:15;;;;;;;8.25;3.75;;;;;;;17.65;81.94;102562.25;5031374;28;20089;-62
2021/08/23 07:09:40;;;;;;;11.10;3.78;;;;;;;17.84;81.79;102574.78;5031204;28;20045;-62
2021/08/23 07:12:06;;;;;;;12.63;4.10;;;;;;;17.90;81.50;102571.78;5030483;28;20025;-62
2021/08/23 07:14:31;;;;;;;9.85;3.80;;;;;;;18.08;81.50;102575.44;5032115;28;20390;-62
2021/08/23 07:16:56;;;;;;;10.05;4.00;;;;;;;18.25;80.03;102581.75;5030673;28;20025;-60
2021/08/23 07:19:22;;;;;;;11.10;3.85;;;;;;;18.28;79.61;102571.75;5030625;28;20079;-60
2021/08/23 07:21:47;;;;;;;8.15;4.00;;;;;;;18.40;78.88;102583.69;5030824;28;20030;-62
2021/08/23 07:24:12;;;;;;;8.20;3.83;;;;;;;18.43;79.58;102586.22;5032273;28;20026;-62
2021/08/23 07:26:37;;;;;;;9.45;3.65;;;;;;;18.58;78.65;102598.00;5031848;28;20030;-62
2021/08/23 07:29:03;;;;;;;7.40;3.72;;;;;;;18.71;77.23;102589.28;5038119;28;20093;-62
2021/08/23 07:31:28;;;;;;;7.35;3.25;;;;;;;18.71;77.15;102589.28;5029244;28;20037;-60
2021/08/23 07:33:54;;;;;;;11.35;3.80;;;;;;;18.75;77.92;102597.13;5030468;28;20100;-62
2021/08/23 07:36:19;;;;;;;9.75;3.78;;;;;;;18.88;76.15;102596.50;5029440;28;20040;-62
2021/08/23 07:38:45;;;;;;;8.55;3.60;;;;;;;18.90;74.96;102587.44;5030571;28;20021;-62
2021/08/23 07:41:10;;;;;;;8.68;3.47;;;;;;;18.97;75.40;102590.66;5029939;28;20042;-62
2021/08/23 07:43:35;;;;;;;11.50;3.58;;;;;;;19.13;74.80;102588.03;5028681;28;20155;-61
2021/08/23 07:46:01;;;;;;;8.82;3.35;;;;;;;19.22;73.88;102582.19;5030057;28;20832;-61
2021/08/23 07:48:26;;;;;;;8.65;3.50;;;;;;;19.38;71.85;102586.72;5026258;28;20029;-60
2021/08/23 07:50:52;;;;;;;6.80;3.40;;;;;;;19.42;72.04;102582.91;5029979;28;20036;-61
2021/08/23 07:53:17;;;;;;;7.40;3.00;;;;;;;19.74;71.05;102596.38;5030187;28;20047;-62
2021/08/23 07:55:42;;;;;;;8.18;3.08;;;;;;;19.97;69.73;102593.31;5029631;28;20044;-62
2021/08/23 07:58:08;;;;;;;9.65;3.20;;;;;;;19.95;69.66;102587.13;5029519;28;20033;-61
2021/08/23 08:00:33;;;;;;;7.15;3.42;;;;;;;20.01;68.74;102596.66;5029865;28;20112;-62
2021/08/23 08:02:58;;;;;;;12.63;3.30;;;;;;;19.88;70.13;102592.94;5029961;28;20350;-60
2021/08/23 08:05:24;;;;;;;9.48;3.10;;;;;;;19.53;69.82;102590.38;5029485;28;20029;-62
2021/08/23 08:07:49;;;;;;;8.20;2.90;;;;;;;19.36;70.30;102600.25;5030900;28;20033;-63
2021/08/23 08:10:14;;;;;;;8.93;3.33;;;;;;;19.21;70.70;102593.88;5030310;28;20041;-62
2021/08/23 08:12:40;;;;;;;9.48;3.47;;;;;;;19.04;70.79;102592.09;5028868;28;20086;-62
2021/08/23 08:15:07;;;;;;;8.05;2.97;;;;;;;19.09;72.00;102608.81;5036533;28;20037;-62
2021/08/23 08:17:32;;;;;;;7.70;2.70;;;;;;;19.21;70.03;102604.59;5035634;28;20040;-62
2021/08/23 08:19:57;;;;;;;7.35;3.00;;;;;;;19.17;69.87;102600.34;5046664;28;20401;-60
2021/08/23 08:22:23;;;;;;;5.57;3.25;;;;;;;19.39;68.59;102601.91;5029217;28;20165;-60
2021/08/23 08:24:48;;;;;;;7.90;3.00;;;;;;;19.47;69.75;102605.00;5025846;28;20351;-61
2021/08/23 08:27:14;;;;;;;5.20;3.13;;;;;;;19.68;68.78;102608.34;5025965;28;20075;-61
2021/08/23 08:29:40;;;;;;;8.32;3.38;;;;;;;19.74;67.99;102609.81;5028692;28;20018;-62
2021/08/23 08:32:06;;;;;;;8.27;2.90;;;;;;;19.73;67.18;102608.97;5029199;28;20013;-63
2021/08/23 08:34:32;;;;;;;6.40;2.53;;;;;;;19.99;66.58;102609.34;5027218;28;20018;-61
2021/08/23 08:36:58;;;;;;;6.28;2.67;;;;;;;20.14;65.86;102616.53;5023261;28;20481;-59
2021/08/23 08:39:23;;;;;;;7.15;2.80;;;;;;;20.28;66.17;102621.13;5028858;28;20056;-60
2021/08/23 08:41:49;;;;;;;5.07;2.80;;;;;;;20.34;64.96;102621.72;5025710;28;20195;-62
2021/08/23 08:44:14;;;;;;;8.25;3.10;;;;;;;20.14;64.46;102624.59;5028131;28;20037;-62
2021/08/23 08:46:40;;;;;;;10.65;3.03;;;;;;;20.04;65.55;102623.41;5019339;28;20096;-62
2021/08/23 08:49:10;;;;;;;7.72;3.00;;;;;;;20.11;64.66;102632.84;5028957;28;20037;-61
2021/08/23 08:51:37;;;;;;;7.53;2.80;;;;;;;20.28;63.67;102629.19;5024365;28;20128;-62
2021/08/23 08:54:04;;;;;;;9.00;3.00;;;;;;;20.49;63.37;102631.59;5028902;28;20438;-61
2021/08/23 08:56:33;;;;;;;5.90;2.70;;;;;;;20.71;62.16;102630.34;5028792;28;20404;-62
2021/08/23 08:59:00;;;;;;;7.63;2.60;;;;;;;20.73;62.34;102639.19;5028150;28;20108;-62
2021/08/23 09:01:26;;;;;;;10.07;2.97;;;;;;;20.79;62.46;102638.81;5026040;28;20455;-62
2021/08/23 09:03:51;;;;;;;7.38;2.50;;;;;;;20.73;61.77;102639.19;5028791;28;20033;-63
2021/08/23 09:06:17;;;;;;;7.90;2.58;;;;;;;20.64;61.23;102637.91;5029450;28;20029;-61
2021/08/23 09:08:44;;;;;;;9.05;2.85;;;;;;;20.55;63.01;102636.63;5029166;28;20144;-62
2021/08/23 09:11:15;;;;;;;7.25;2.90;;;;;;;20.47;62.19;102636.19;5028838;28;20052;-62
2021/08/23 09:13:56;;;;;;;8.93;3.00;;;;;;;20.62;62.73;102639.81;5027907;28;20468;-63
2021/08/23 09:16:29;;;;;;;6.85;3.10;;;;;;;20.62;60.91;102631.72;5029420;28;20117;-63
2021/08/23 09:18:55;;;;;;;6.88;2.83;;;;;;;20.58;61.48;102639.13;5029640;28;20078;-62
2021/08/23 09:21:29;;;;;;;7.13;2.45;;;;;;;21.49;59.87;102646.25;5028176;28;20040;-62
2021/08/23 09:24:00;;;;;;;5.30;2.47;;;;;;;22.91;55.59;102649.66;5037325;28;20119;-62
2021/08/23 09:26:31;;;;;;;5.18;2.67;;;;;;;24.19;51.59;102645.13;5046728;28;20025;-62
2021/08/23 09:29:06;;;;;;;5.63;2.70;;;;;;;25.15;46.76;102627.03;5030047;28;20021;-61
2021/08/23 09:31:37;;;;;;;7.50;2.67;;;;;;;24.91;47.63;102649.66;5023589;28;20107;-62
2021/08/23 09:34:05;;;;;;;8.85;2.72;;;;;;;24.81;46.53;102645.91;5031662;28;20089;-63
2021/08/23 09:36:31;;;;;;;7.70;2.70;;;;;;;25.38;45.93;102652.34;5030296;28;20025;-63
2021/08/23 09:38:57;;;;;;;8.07;2.70;;;;;;;25.05;48.80;102643.13;5026852;28;20087;-61
2021/08/23 09:41:23;;;;;;;5.88;2.58;;;;;;;25.06;48.70;102652.16;5026148;28;20048;-63
2021/08/23 09:43:58;;;;;;;5.38;2.60;;;;;;;25.93;44.41;102638.00;5024676;28;20602;-63
2021/08/23 09:46:23;;;;;;;7.10;2.45;;;;;;;25.96;44.96;102637.75;5035201;28;20439;-65
2021/08/23 09:48:55;;;;;;;5.32;2.63;;;;;;;26.85;43.97;102645.75;5034157;28;20290;-61
2021/08/23 09:51:47;;;;;;;7.20;2.60;;;;;;;27.37;42.16;102644.91;5042524;28;20048;-63
2021/08/23 09:54:17;;;;;;;3.92;1.98;;;;;;;28.05;36.85;102637.00;5020579;28;20536;-62
2021/08/23 09:56:46;;;;;;;3.97;2.30;;;;;;;26.93;40.38;102655.94;5027428;28;20089;-62
2021/08/23 09:59:17;;;;;;;4.95;2.35;;;;;;;25.83;43.17;102646.03;5028336;28;20029;-65
2021/08/23 10:01:45;;;;;;;7.55;2.35;;;;;;;24.65;45.62;102646.25;5029184;28;20061;-62
2021/08/23 10:04:11;;;;;;;8.55;2.50;;;;;;;25.16;45.42;102648.59;5040390;28;20048;-63
2021/08/23 10:06:39;;;;;;;8.02;2.75;;;;;;;25.93;43.12;102652.44;5028689;28;20029;-63
2021/08/23 10:09:05;;;;;;;4.00;2.13;;;;;;;25.58;41.88;102653.47;5028070;28;20055;-61
2021/08/23 10:11:32;;;;;;;5.28;2.28;;;;;;;26.24;41.31;102652.66;5028870;28;20029;-62
2021/08/23 10:13:59;;;;;;;7.75;2.30;;;;;;;26.70;40.02;102645.16;5033242;28;20056;-61
2021/08/23 10:16:25;;;;;;;6.38;2.70;;;;;;;27.35;39.95;102655.91;5031270;28;20134;-61
2021/08/23 10:18:51;;;;;;;6.22;2.53;;;;;;;26.82;40.29;102649.59;5036400;28;20493;-67
2021/08/23 10:21:17;;;;;;;5.80;2.80;;;;;;;27.15;39.91;102650.38;5036619;28;20056;-62
2021/08/23 10:23:43;;;;;;;6.65;2.70;;;;;;;27.19;38.85;102650.97;5028364;28;20369;-63
2021/08/23 10:26:09;;;;;;;5.55;2.53;;;;;;;26.74;41.45;102645.78;5032820;28;20025;-61
2021/08/23 10:28:37;;;;;;;6.50;2.30;;;;;;;26.12;41.73;102651.81;5033518;28;20109;-63
2021/08/23 10:31:10;;;;;;;6.10;2.10;;;;;;;26.21;41.91;102652.91;5035157;28;20089;-65
2021/08/23 10:33:42;;;;;;;7.53;2.60;;;;;;;26.03;42.29;102654.41;5007856;28;20097;-64
2021/08/23 10:36:11;;;;;;;4.75;2.03;;;;;;;26.73;42.63;102650.38;5016786;28;20041;-62
2021/08/23 10:38:37;;;;;;;7.38;2.20;;;;;;;26.65;40.83;102652.84;5027501;28;20037;-61
2021/08/23 10:41:07;;;;;;;6.35;2.20;;;;;;;25.90;42.83;102647.25;5027309;28;20053;-62
2021/08/23 10:43:48;;;;;;;4.32;2.10;;;;;;;25.88;41.60;102651.94;5020519;28;20036;-63
2021/08/23 10:46:21;;;;;;;5.97;2.20;;;;;;;26.37;40.30;102654.31;5021135;28;20054;-64
2021/08/23 10:48:48;;;;;;;6.25;2.28;;;;;;;26.78;40.47;102650.84;5027245;28;20037;-60
2021/08/23 10:51:26;;;;;;;5.50;2.10;;;;;;;26.24;38.85;102643.63;5024081;28;20108;-62
2021/08/23 10:53:51;;;;;;;5.78;2.17;;;;;;;26.22;40.78;102640.19;5024469;28;20028;-63
2021/08/23 10:56:18;;;;;;;3.15;2.15;;;;;;;26.71;38.73;102652.31;5029391;28;20121;-63
2021/08/23 10:58:44;;;;;;;4.97;2.30;;;;;;;27.05;39.33;102649.47;5026646;28;20029;-62
2021/08/23 11:01:21;;;;;;;5.50;2.20;;;;;;;27.30;38.90;102640.00;5025989;28;20545;-62
2021/08/23 11:04:07;;;;;;;7.60;2.30;;;;;;;27.81;37.89;102659.13;5034573;28;20112;-66
2021/08/23 11:06:33;;;;;;;3.88;1.90;;;;;;;27.83;42.24;102651.69;5033732;28;20539;-62
2021/08/23 11:09:09;;;;;;;7.78;2.22;;;;;;;26.90;41.20;102646.19;5037460;28;20086;-61
2021/08/23 11:11:36;;;;;;;4.30;1.98;;;;;;;26.67;41.00;102657.16;5035600;28;20067;-62
2021/08/23 11:14:02;;;;;;;4.68;1.90;;;;;;;26.52;41.78;102653.03;5020425;28;20285;-62
2021/08/23 11:16:27;;;;;;;7.22;2.20;;;;;;;26.29;39.78;102653.13;5029559;28;20153;-62